createdAt,value
2023-02-17T00:04:05.992Z,61.95
2023-02-17T00:09:08.869Z,61.98
2023-02-17T00:14:13.225Z,61.81
2023-02-17T00:19:26.261Z,61.63
2023-02-17T00:24:29.972Z,61.31
2023-02-17T00:29:32.847Z,62.08
2023-02-17T00:34:37.133Z,62.35
2023-02-17T00:39:39.999Z,62.14
2023-02-17T00:44:42.884Z,62.44
2023-02-17T00:49:47.177Z,63.05
2023-02-17T00:54:50.123Z,65.37
2023-02-17T00:59:52.994Z,64.66
2023-02-17T01:04:57.292Z,65.32
2023-02-17T01:10:00.177Z,65.35
2023-02-17T01:15:03.082Z,65.48
2023-02-17T01:20:08.464Z,64.38
2023-02-17T01:25:11.337Z,64.47
2023-02-17T01:30:15.221Z,64.19
2023-02-17T01:35:19.525Z,63.88
2023-02-17T01:40:22.453Z,63.44
2023-02-17T01:45:34.234Z,64.13
2023-02-17T01:50:40.529Z,63.63
2023-02-17T01:55:44.082Z,63.68
2023-02-17T02:00:47.580Z,63.35
2023-02-17T02:05:52.118Z,63.26
2023-02-17T02:10:54.976Z,64.37
2023-02-17T02:16:02.853Z,63.66
2023-02-17T02:21:25.226Z,64.18
2023-02-17T02:26:45.732Z,64.46
2023-02-17T02:31:58.754Z,65.28
2023-02-17T02:37:07.971Z,65.15
2023-02-17T02:42:12.636Z,65.66
2023-02-17T02:47:30.295Z,65.46
2023-02-17T02:52:38.500Z,66.02
2023-02-17T02:57:47.561Z,65.07
2023-02-17T03:02:52.725Z,65.81
2023-02-17T03:08:00.337Z,64.98
2023-02-17T03:13:03.452Z,64.72
2023-02-17T03:18:06.609Z,65.31
2023-02-17T03:23:10.991Z,65.76
2023-02-17T03:28:13.863Z,66.48
2023-02-17T03:33:16.770Z,65.29
2023-02-17T03:38:21.027Z,65.63
2023-02-17T03:43:23.915Z,64.89
2023-02-17T03:48:26.782Z,64.73
2023-02-17T03:53:31.152Z,65.72
2023-02-17T03:58:34.049Z,65.74
2023-02-17T04:03:37.257Z,65.44
2023-02-17T04:08:41.556Z,65.11
2023-02-17T04:13:44.436Z,65.14
2023-02-17T04:18:47.524Z,65.10
2023-02-17T04:23:51.800Z,66.00
2023-02-17T04:28:54.663Z,66.09
2023-02-17T04:33:57.546Z,65.75
2023-02-17T04:39:01.819Z,65.31
2023-02-17T04:44:04.699Z,64.53
2023-02-17T04:49:07.564Z,64.12
2023-02-17T04:54:11.858Z,66.63
2023-02-17T04:59:14.764Z,67.33
2023-02-17T05:04:17.621Z,68.66
2023-02-17T05:09:21.951Z,68.90
2023-02-17T05:14:24.827Z,70.38
2023-02-17T05:19:27.749Z,70.09
2023-02-17T05:24:32.193Z,70.54
2023-02-17T05:29:35.192Z,69.02
2023-02-17T05:34:38.117Z,70.28
2023-02-17T05:39:42.439Z,70.25
2023-02-17T05:44:45.317Z,69.98
2023-02-17T05:49:48.209Z,69.91
2023-02-17T05:54:52.484Z,71.23
2023-02-17T05:59:55.321Z,71.45
2023-02-17T06:04:58.321Z,71.46
2023-02-17T06:10:02.644Z,71.58
2023-02-17T06:15:05.687Z,72.83
2023-02-17T06:20:09.295Z,72.19
2023-02-17T06:25:13.575Z,72.20
2023-02-17T06:30:17.727Z,72.82
2023-02-17T06:35:20.750Z,72.15
2023-02-17T06:40:27.498Z,71.34
2023-02-17T06:45:31.411Z,72.67
2023-02-17T06:50:34.342Z,72.47
2023-02-17T06:55:39.691Z,72.04
2023-02-17T07:00:42.552Z,72.22
2023-02-17T07:05:45.455Z,73.05
2023-02-17T07:10:49.756Z,72.96
2023-02-17T07:15:52.607Z,72.60
2023-02-17T07:20:55.462Z,72.94
2023-02-17T07:26:02.388Z,72.84
2023-02-17T07:31:08.846Z,72.33
2023-02-17T07:36:12.626Z,70.58
2023-02-17T07:41:17.986Z,70.99
2023-02-17T07:46:21.169Z,71.69
2023-02-17T07:51:24.213Z,71.50
2023-02-17T07:56:30.278Z,70.65
2023-02-17T08:01:33.236Z,70.77
2023-02-17T08:06:36.205Z,69.76
2023-02-17T08:11:58.309Z,70.53
2023-02-17T08:17:01.234Z,68.98
2023-02-17T08:22:04.281Z,69.95
2023-02-17T08:27:10.005Z,69.32
2023-02-17T08:32:13.178Z,67.62
2023-02-17T08:37:16.122Z,66.98
2023-02-17T08:42:20.408Z,65.06
2023-02-17T08:47:23.269Z,64.76
2023-02-17T08:52:26.146Z,63.87
2023-02-17T08:57:30.391Z,62.09
2023-02-17T09:02:33.270Z,57.28
2023-02-17T09:07:36.196Z,54.26
2023-02-17T09:12:40.573Z,50.22
2023-02-17T09:17:43.465Z,46.94
2023-02-17T09:22:46.490Z,45.62
2023-02-17T09:27:50.866Z,46.79
2023-02-17T09:32:53.917Z,48.20
2023-02-17T09:37:56.936Z,48.72
2023-02-17T09:43:01.436Z,49.20
2023-02-17T09:48:07.488Z,49.21
2023-02-17T09:53:13.764Z,49.96
2023-02-17T09:58:20.559Z,48.59
2023-02-17T10:03:26.428Z,48.11
2023-02-17T10:08:32.335Z,47.69
2023-02-17T10:13:38.144Z,47.64
2023-02-17T10:18:45.075Z,46.32
2023-02-17T10:23:48.160Z,45.89
2023-02-17T10:28:53.871Z,45.51
2023-02-17T10:34:02.755Z,44.80
2023-02-17T10:39:11.229Z,44.46
2023-02-17T10:44:19.463Z,43.86
2023-02-17T10:49:29.652Z,43.18
2023-02-17T10:54:38.834Z,42.30
2023-02-17T10:59:44.364Z,40.85
2023-02-17T11:04:49.013Z,39.28
2023-02-17T11:09:53.256Z,35.51
2023-02-17T11:14:57.698Z,35.06
2023-02-17T11:20:04.217Z,33.93
2023-02-17T11:25:09.468Z,32.99
2023-02-17T11:30:18.918Z,31.84
2023-02-17T11:35:23.859Z,31.80
2023-02-17T11:40:27.719Z,31.32
2023-02-17T11:45:36.768Z,30.94
2023-02-17T11:50:46.999Z,30.71
2023-02-17T11:55:56.232Z,30.34
2023-02-17T12:01:08.424Z,30.57
2023-02-17T12:06:16.630Z,30.05
2023-02-17T12:11:24.856Z,30.26
2023-02-17T12:16:43.204Z,30.49
2023-02-17T12:21:55.312Z,29.21
2023-02-17T12:27:06.512Z,29.02
2023-02-17T12:32:22.740Z,28.67
2023-02-17T12:37:27.943Z,28.15
2023-02-17T12:42:35.138Z,27.80
2023-02-17T12:47:47.342Z,27.09
2023-02-17T12:52:54.547Z,26.66
2023-02-17T12:58:00.736Z,27.21
2023-02-17T13:03:06.939Z,26.81
2023-02-17T13:08:14.175Z,26.41
2023-02-17T13:13:29.376Z,25.91
2023-02-17T13:18:37.575Z,25.49
2023-02-17T13:23:43.773Z,25.61
2023-02-17T13:28:48.015Z,25.12
2023-02-17T13:33:54.465Z,24.72
2023-02-17T13:39:01.443Z,23.70
2023-02-17T13:44:23.665Z,23.74
2023-02-17T13:49:33.873Z,23.45
2023-02-17T13:54:38.067Z,22.84
2023-02-17T13:59:43.251Z,21.53
2023-02-17T14:04:49.466Z,21.79
2023-02-17T14:09:55.637Z,21.70
2023-02-17T14:14:59.812Z,20.44
2023-02-17T14:20:07.021Z,21.04
2023-02-17T14:25:14.235Z,20.63
2023-02-17T14:30:29.362Z,19.56
2023-02-17T14:35:39.669Z,19.30
2023-02-17T14:40:44.881Z,19.68
2023-02-17T14:45:49.049Z,19.98
2023-02-17T14:50:58.336Z,19.83
2023-02-17T14:56:05.724Z,19.58
2023-02-17T15:01:13.753Z,18.96
2023-02-17T15:06:23.498Z,19.25
2023-02-17T15:11:31.147Z,18.88
2023-02-17T15:16:36.360Z,19.03
2023-02-17T15:21:46.563Z,18.73
2023-02-17T15:26:51.765Z,18.94
2023-02-17T15:31:57.059Z,18.90
2023-02-17T15:37:04.309Z,18.54
2023-02-17T15:42:08.481Z,18.81
2023-02-17T15:47:14.979Z,18.70
2023-02-17T15:52:19.345Z,19.33
2023-02-17T15:57:23.480Z,19.26
2023-02-17T16:02:26.896Z,19.46
2023-02-17T16:07:31.251Z,19.32
2023-02-17T16:12:34.288Z,19.57
2023-02-17T16:17:37.293Z,19.52
2023-02-17T16:22:42.839Z,19.84
2023-02-17T16:27:49.020Z,20.07
2023-02-17T16:32:54.203Z,20.50
2023-02-17T16:38:02.415Z,20.70
2023-02-17T16:43:06.595Z,20.93
2023-02-17T16:48:10.777Z,20.94
2023-02-17T16:53:19.982Z,21.11
2023-02-17T16:58:25.178Z,21.00
2023-02-17T17:03:29.445Z,21.31
2023-02-17T17:08:36.552Z,21.68
2023-02-17T17:13:40.745Z,22.16
2023-02-17T17:18:45.942Z,22.91
2023-02-17T17:23:53.145Z,22.90
2023-02-17T17:28:58.322Z,23.73
2023-02-17T17:34:02.519Z,24.13
2023-02-17T17:39:10.732Z,24.32
2023-02-17T17:44:15.922Z,24.30
2023-02-17T17:49:20.112Z,24.20
2023-02-17T17:54:28.320Z,25.98
2023-02-17T17:59:32.507Z,27.77
2023-02-17T18:04:36.737Z,28.32
2023-02-17T18:09:44.885Z,27.93
2023-02-17T18:14:51.097Z,30.57
2023-02-17T18:19:56.313Z,29.51
2023-02-17T18:25:03.491Z,29.28
2023-02-17T18:30:08.708Z,31.47
2023-02-17T18:35:12.860Z,31.49
2023-02-17T18:40:21.063Z,30.93
2023-02-17T18:45:27.256Z,33.61
2023-02-17T18:50:33.321Z,32.90
2023-02-17T18:55:41.650Z,32.97
2023-02-17T19:00:45.852Z,35.01
2023-02-17T19:05:50.042Z,34.56
2023-02-17T19:10:57.245Z,35.04
2023-02-17T19:16:07.763Z,35.02
2023-02-17T19:21:12.630Z,35.34
2023-02-17T19:26:19.818Z,33.34
2023-02-17T19:31:24.071Z,35.60
2023-02-17T19:36:28.196Z,36.65
2023-02-17T19:41:35.992Z,35.93
2023-02-17T19:46:40.642Z,37.20
2023-02-17T19:51:44.790Z,36.06
2023-02-17T19:56:51.996Z,38.26
2023-02-17T20:01:56.274Z,37.24
2023-02-17T20:07:02.377Z,38.54
2023-02-17T20:12:09.576Z,37.23
2023-02-17T20:17:13.762Z,37.90
2023-02-17T20:22:17.944Z,38.19
2023-02-17T20:27:25.139Z,39.72
2023-02-17T20:32:29.410Z,41.01
2023-02-17T20:37:33.511Z,40.82
2023-02-17T20:42:40.727Z,41.38
2023-02-17T20:47:44.804Z,39.91
2023-02-17T20:52:50.103Z,43.47
2023-02-17T20:57:57.347Z,45.78
2023-02-17T21:03:01.610Z,46.32
2023-02-17T21:08:05.737Z,44.51
2023-02-17T21:13:11.929Z,43.09
2023-02-17T21:18:16.132Z,45.72
2023-02-17T21:23:21.316Z,44.62
2023-02-17T21:28:28.528Z,44.87
2023-02-17T21:33:32.724Z,44.67
2023-02-17T21:38:36.906Z,44.66
2023-02-17T21:44:00.170Z,44.78
2023-02-17T21:49:03.112Z,44.66
2023-02-17T21:54:06.356Z,45.08
2023-02-17T21:59:10.615Z,44.07
2023-02-17T22:04:13.496Z,45.95
2023-02-17T22:09:18.137Z,45.38
2023-02-17T22:14:22.906Z,46.42
2023-02-17T22:19:26.074Z,45.24
2023-02-17T22:24:29.108Z,45.93
2023-02-17T22:29:33.430Z,47.78
2023-02-17T22:34:36.332Z,49.72
2023-02-17T22:39:39.184Z,50.05
2023-02-17T22:44:43.447Z,50.24
2023-02-17T22:49:46.346Z,51.91
2023-02-17T22:54:49.223Z,53.11
2023-02-17T22:59:53.475Z,50.05
2023-02-17T23:04:56.336Z,49.14
2023-02-17T23:09:59.208Z,49.14
2023-02-17T23:15:03.480Z,52.30
2023-02-17T23:20:06.772Z,54.69
2023-02-17T23:25:09.858Z,54.80
2023-02-17T23:30:19.269Z,54.51
2023-02-17T23:35:22.163Z,55.49
2023-02-17T23:40:25.084Z,55.08
2023-02-17T23:45:29.562Z,57.97
2023-02-17T23:50:32.457Z,57.98
2023-02-17T23:55:35.496Z,58.13
